Time;durP1;ratioP1;P1;durP2;ratioP2;P2;SDS_P1;SDS_P2;PMS_P1;PMS_P2;Temp;Humidity;BMP_temperature;BMP_pressure;BME280_temperature;BME280_humidity;BME280_pressure;Samples;Min_cycle;Max_cycle;Signal;HPM_P1;HPM_P2
2021/05/26 00:02:00;;;;;;;28.05;20.08;;;8.30;99.90;;;;;;5009492;28;20064;-48
2021/05/26 00:04:27;;;;;;;26.85;19.50;;;8.30;99.90;;;;;;5014315;28;20042;-51
2021/05/26 00:06:54;;;;;;;22.58;20.02;;;8.40;99.90;;;;;;5017786;28;20053;-48
2021/05/26 00:09:20;;;;;;;24.95;19.92;;;8.40;99.90;;;;;;5019180;28;20545;-49
2021/05/26 00:11:47;;;;;;;27.73;19.67;;;8.50;99.90;;;;;;5015795;28;20548;-50
2021/05/26 00:14:15;;;;;;;24.75;21.00;;;8.50;99.90;;;;;;5014889;28;20045;-47
2021/05/26 00:16:51;;;;;;;25.40;22.10;;;8.60;99.90;;;;;;5018115;28;20059;-46
2021/05/26 00:19:18;;;;;;;23.88;20.33;;;8.70;99.90;;;;;;5011588;28;20053;-46
2021/05/26 00:21:46;;;;;;;27.42;22.05;;;8.70;99.90;;;;;;5025779;28;20046;-51
2021/05/26 00:24:12;;;;;;;23.55;21.05;;;8.70;99.90;;;;;;5016310;28;20152;-47
2021/05/26 00:26:39;;;;;;;25.75;21.52;;;8.70;99.90;;;;;;5019053;28;20064;-48
2021/05/26 00:29:08;;;;;;;25.25;21.55;;;8.70;99.90;;;;;;5020895;28;20075;-48
2021/05/26 00:31:34;;;;;;;27.75;20.85;;;8.70;99.90;;;;;;5020803;28;20033;-48
2021/05/26 00:34:04;;;;;;;26.95;21.10;;;8.70;99.90;;;;;;5019529;28;20049;-47
2021/05/26 00:36:33;;;;;;;23.48;20.33;;;8.70;99.90;;;;;;5015438;28;20068;-47
2021/05/26 00:39:05;;;;;;;26.48;20.77;;;8.70;99.90;;;;;;5023840;28;20056;-46
2021/05/26 00:41:33;;;;;;;23.15;19.50;;;8.70;99.90;;;;;;5017361;28;20054;-47
2021/05/26 00:43:59;;;;;;;26.77;20.52;;;8.70;99.90;;;;;;5020367;28;20076;-46
2021/05/26 00:46:26;;;;;;;29.33;20.95;;;8.70;99.90;;;;;;5016021;28;20413;-49
2021/05/26 00:48:52;;;;;;;24.27;21.23;;;8.60;99.90;;;;;;5011349;28;20046;-50
2021/05/26 00:51:21;;;;;;;27.02;19.65;;;8.60;99.90;;;;;;5023721;28;20045;-49
2021/05/26 00:53:48;;;;;;;23.33;20.23;;;8.60;99.90;;;;;;5002121;28;20050;-46
2021/05/26 00:56:15;;;;;;;28.13;21.63;;;8.60;99.90;;;;;;5019618;28;20738;-46
2021/05/26 00:58:42;;;;;;;26.98;20.83;;;8.50;99.90;;;;;;4984655;28;20140;-48
2021/05/26 01:01:08;;;;;;;25.95;20.92;;;8.60;99.90;;;;;;5017270;28;20053;-46
2021/05/26 01:03:35;;;;;;;26.98;21.52;;;8.60;99.90;;;;;;5000394;28;20041;-48
2021/05/26 01:06:03;;;;;;;28.65;20.70;;;8.60;99.90;;;;;;5020098;28;20127;-49
2021/05/26 01:08:32;;;;;;;26.75;21.65;;;8.70;99.90;;;;;;5019839;28;20049;-51
2021/05/26 01:10:59;;;;;;;23.98;20.25;;;8.80;99.90;;;;;;5019378;28;20058;-48
2021/05/26 01:13:30;;;;;;;24.88;20.40;;;8.80;99.90;;;;;;5020958;28;20041;-50
2021/05/26 01:15:57;;;;;;;23.92;20.88;;;8.80;99.90;;;;;;5024141;28;20045;-48
2021/05/26 01:18:30;;;;;;;22.33;19.65;;;8.90;99.90;;;;;;5019262;28;20054;-48
2021/05/26 01:21:22;;;;;;;25.00;18.73;;;8.90;99.90;;;;;;5017381;28;20081;-46
2021/05/26 01:23:50;;;;;;;21.55;19.10;;;9.00;99.90;;;;;;5000066;28;20108;-46
2021/05/26 01:26:22;;;;;;;20.05;17.75;;;9.00;99.90;;;;;;5024453;28;20080;-46
2021/05/26 01:28:50;;;;;;;23.17;18.70;;;9.00;99.90;;;;;;5017698;28;20065;-47
2021/05/26 01:31:20;;;;;;;20.70;18.50;;;9.00;99.90;;;;;;5020290;28;20050;-53
2021/05/26 01:34:01;;;;;;;20.10;17.92;;;9.00;99.90;;;;;;5000751;28;20513;-46
2021/05/26 01:36:34;;;;;;;23.60;17.23;;;9.00;99.90;;;;;;5006280;28;20100;-47
2021/05/26 01:39:06;;;;;;;23.33;17.52;;;9.10;99.90;;;;;;5005147;28;20070;-50
2021/05/26 01:41:35;;;;;;;25.35;18.02;;;9.10;99.90;;;;;;4993615;28;20062;-49
2021/05/26 01:44:03;;;;;;;21.92;16.65;;;9.10;99.90;;;;;;5014625;28;20053;-49
2021/05/26 01:46:32;;;;;;;22.73;17.60;;;9.10;99.90;;;;;;5002902;28;20041;-49
2021/05/26 01:48:58;;;;;;;20.70;18.02;;;9.10;99.90;;;;;;5003920;28;20387;-50
2021/05/26 01:51:25;;;;;;;20.50;18.35;;;9.20;99.90;;;;;;5012302;28;20107;-46
2021/05/26 01:53:53;;;;;;;24.67;18.95;;;9.20;99.90;;;;;;5004152;28;20058;-47
2021/05/26 01:56:27;;;;;;;21.45;18.13;;;9.20;99.90;;;;;;5022335;28;20048;-48
2021/05/26 01:59:05;;;;;;;22.85;18.92;;;9.20;99.90;;;;;;5022959;28;20045;-49
2021/05/26 02:01:35;;;;;;;21.77;19.48;;;9.20;99.90;;;;;;5026749;28;20049;-49
2021/05/26 02:04:06;;;;;;;26.67;20.63;;;9.20;99.90;;;;;;5008812;28;20046;-47
2021/05/26 02:06:33;;;;;;;22.00;19.80;;;9.20;99.90;;;;;;5017396;28;20521;-53
2021/05/26 02:09:01;;;;;;;23.02;19.42;;;9.20;99.90;;;;;;5017210;28;20061;-50
2021/05/26 02:14:18;;;;;;;22.40;20.00;;;9.20;99.90;;;;;;5012953;28;20045;-47
2021/05/26 02:16:47;;;;;;;21.95;19.63;;;9.20;99.90;;;;;;5016751;28;20590;-48
2021/05/26 02:19:16;;;;;;;23.27;18.40;;;9.20;99.90;;;;;;4994974;28;20490;-48
2021/05/26 02:21:43;;;;;;;22.83;19.05;;;9.20;99.90;;;;;;5000703;28;20046;-46
2021/05/26 02:24:10;;;;;;;21.35;19.15;;;9.20;99.90;;;;;;5008377;28;20128;-46
2021/05/26 02:26:36;;;;;;;25.00;19.42;;;9.20;99.90;;;;;;5009489;28;20573;-46
2021/05/26 02:29:05;;;;;;;22.67;20.27;;;9.20;99.90;;;;;;4992682;28;20061;-49
2021/05/26 02:31:35;;;;;;;;;;;9.10;99.90;;;;;;4996899;28;20100;-47
2021/05/26 02:34:01;;;;;;;25.48;21.65;;;9.20;99.90;;;;;;4991802;28;19932;-47
2021/05/26 02:36:28;;;;;;;24.17;21.65;;;9.10;99.90;;;;;;5010678;28;20046;-46
2021/05/26 02:38:54;;;;;;;29.73;23.92;;;9.10;99.90;;;;;;5010397;28;20065;-48
2021/05/26 02:41:20;;;;;;;31.60;24.95;;;9.20;99.90;;;;;;5009635;28;20050;-46
2021/05/26 02:43:48;;;;;;;40.40;27.73;;;9.20;99.90;;;;;;4987902;28;20806;-48
2021/05/26 02:46:16;;;;;;;41.70;29.13;;;9.20;99.90;;;;;;4979745;28;20054;-48
2021/05/26 02:48:42;;;;;;;38.40;29.02;;;9.20;99.90;;;;;;4994833;28;20057;-46
2021/05/26 02:51:09;;;;;;;40.08;31.38;;;9.20;99.90;;;;;;4991001;28;20129;-46
2021/05/26 02:53:39;;;;;;;40.88;32.75;;;9.20;99.90;;;;;;5008769;28;20103;-49
2021/05/26 02:56:06;;;;;;;37.80;32.63;;;9.30;99.90;;;;;;5007577;28;20050;-46
2021/05/26 02:58:38;;;;;;;;;;;9.20;99.90;;;;;;5009563;28;20101;-48
2021/05/26 03:01:24;;;;;;;42.17;31.33;;;9.20;99.90;;;;;;4974712;28;20607;-48
2021/05/26 03:04:13;;;;;;;50.08;34.17;;;9.10;99.90;;;;;;5000657;28;20625;-49
2021/05/26 03:06:42;;;;;;;44.92;33.92;;;9.10;99.90;;;;;;4995268;28;20048;-46
2021/05/26 03:09:08;;;;;;;43.88;34.92;;;9.10;99.90;;;;;;4990895;28;20064;-46
2021/05/26 03:11:43;;;;;;;44.33;34.10;;;9.00;99.90;;;;;;5002121;28;20054;-46
2021/05/26 03:14:39;;;;;;;43.38;33.83;;;9.00;99.90;;;;;;4926420;29;20148;-47
2021/05/26 03:17:09;;;;;;;44.20;34.42;;;9.00;99.90;;;;;;4928444;29;20060;-47
2021/05/26 03:19:35;;;;;;;47.15;35.22;;;9.00;99.90;;;;;;4930463;29;20063;-48
2021/05/26 03:22:37;;;;;;;47.53;32.05;;;9.10;99.90;;;;;;4854600;29;20092;-48
2021/05/26 03:25:20;;;;;;;46.38;33.15;;;9.10;99.90;;;;;;4853520;29;20168;-47
2021/05/26 03:27:58;;;;;;;43.83;34.22;;;9.10;99.90;;;;;;4837799;29;20140;-46
2021/05/26 03:30:24;;;;;;;47.92;35.35;;;9.10;99.90;;;;;;4855476;29;20056;-46
2021/05/26 03:32:51;;;;;;;53.30;33.03;;;9.10;99.90;;;;;;4853392;29;20064;-47
2021/05/26 03:35:18;;;;;;;45.58;33.78;;;9.10;99.90;;;;;;4852839;29;20053;-47
2021/05/26 03:37:46;;;;;;;50.63;33.70;;;9.10;99.90;;;;;;4853325;29;20061;-47
2021/05/26 03:40:15;;;;;;;46.92;33.28;;;9.10;99.90;;;;;;4852594;29;20111;-46
2021/05/26 03:42:46;;;;;;;42.30;32.20;;;9.10;99.90;;;;;;4853300;29;20053;-46
2021/05/26 03:45:28;;;;;;;40.85;30.98;;;9.10;99.90;;;;;;4852686;29;20061;-49
2021/05/26 03:47:58;;;;;;;44.78;29.30;;;9.10;99.90;;;;;;4857612;29;20054;-46
2021/05/26 03:50:25;;;;;;;36.30;27.33;;;9.00;99.90;;;;;;4869308;29;20048;-47
2021/05/26 03:52:52;;;;;;;36.20;26.30;;;9.00;99.90;;;;;;4912160;29;20055;-47
2021/05/26 03:55:24;;;;;;;34.65;23.10;;;8.90;99.90;;;;;;4911465;29;20052;-48
2021/05/26 03:57:56;;;;;;;32.90;22.85;;;8.90;99.90;;;;;;4962904;28;20054;-46
2021/05/26 04:00:23;;;;;;;31.27;22.48;;;8.80;99.90;;;;;;5003029;28;20136;-47
2021/05/26 04:03:06;;;;;;;27.33;22.80;;;8.80;99.90;;;;;;5001583;28;20056;-46
2021/05/26 04:05:32;;;;;;;26.60;20.52;;;8.80;99.90;;;;;;4998468;28;20057;-52
2021/05/26 04:07:59;;;;;;;28.77;19.70;;;8.70;99.90;;;;;;5018296;28;20046;-50
2021/05/26 04:10:25;;;;;;;29.35;20.80;;;8.70;99.90;;;;;;4997374;28;20048;-49
2021/05/26 04:12:55;;;;;;;32.28;22.50;;;8.70;99.90;;;;;;5010100;28;20112;-49
2021/05/26 04:15:26;;;;;;;24.77;19.85;;;8.60;99.90;;;;;;5014159;28;20057;-50
2021/05/26 04:18:11;;;;;;;26.23;19.90;;;8.60;99.90;;;;;;5020089;28;20497;-48
2021/05/26 04:20:42;;;;;;;24.55;18.65;;;8.60;99.90;;;;;;5008003;28;20046;-49
2021/05/26 04:23:08;;;;;;;27.65;19.80;;;8.60;99.90;;;;;;5023476;28;20053;-47
2021/05/26 04:25:43;;;;;;;27.00;18.95;;;8.70;99.90;;;;;;5005833;28;20123;-43
2021/05/26 04:28:10;;;;;;;;;;;8.80;99.90;;;;;;5026185;28;20083;-43
2021/05/26 04:30:39;;;;;;;23.38;16.95;;;8.80;99.90;;;;;;5008483;28;19925;-44
2021/05/26 04:33:07;;;;;;;21.88;16.88;;;8.80;99.90;;;;;;5026472;28;20076;-47
2021/05/26 04:35:36;;;;;;;23.40;16.75;;;8.80;99.90;;;;;;5006200;28;20046;-45
2021/05/26 04:38:02;;;;;;;22.83;15.77;;;8.90;99.90;;;;;;5022314;28;20112;-48
2021/05/26 04:40:31;;;;;;;18.23;15.75;;;9.00;99.90;;;;;;5025752;28;20069;-50
2021/05/26 04:43:01;;;;;;;20.45;15.60;;;9.10;99.90;;;;;;5027660;28;20577;-49
2021/05/26 04:45:30;;;;;;;16.45;13.30;;;9.20;99.90;;;;;;5016588;28;20046;-49
2021/05/26 04:47:56;;;;;;;16.25;13.55;;;9.30;99.90;;;;;;5009545;28;20090;-50
2021/05/26 04:50:24;;;;;;;22.70;12.48;;;9.30;99.90;;;;;;5026972;28;20049;-50
2021/05/26 04:52:51;;;;;;;14.55;12.27;;;9.40;99.90;;;;;;5026665;28;20100;-48
2021/05/26 04:55:18;;;;;;;16.80;11.70;;;9.50;99.90;;;;;;5025937;28;20569;-47
2021/05/26 04:58:04;;;;;;;17.30;13.60;;;9.50;99.90;;;;;;5020328;28;20075;-47
2021/05/26 05:00:36;;;;;;;19.33;13.10;;;9.50;99.90;;;;;;5008802;28;20060;-47
2021/05/26 05:03:02;;;;;;;19.20;13.18;;;9.60;99.90;;;;;;5013032;28;20077;-49
2021/05/26 05:05:34;;;;;;;12.93;11.38;;;9.60;99.90;;;;;;5024261;28;20073;-48
2021/05/26 05:08:08;;;;;;;16.42;11.45;;;9.60;99.90;;;;;;5019626;28;20144;-50
2021/05/26 05:10:37;;;;;;;14.85;11.95;;;9.60;99.90;;;;;;5014635;28;20077;-50
2021/05/26 05:13:10;;;;;;;12.57;10.00;;;9.50;99.90;;;;;;5019326;28;20063;-51
2021/05/26 05:15:38;;;;;;;16.83;10.90;;;9.50;99.90;;;;;;5018885;28;20593;-47
2021/05/26 05:18:08;;;;;;;16.63;10.98;;;9.50;99.90;;;;;;5015163;28;20128;-47
2021/05/26 05:20:34;;;;;;;15.63;10.90;;;9.40;99.90;;;;;;5019306;28;20069;-47
2021/05/26 05:23:03;;;;;;;13.13;10.55;;;9.40;99.90;;;;;;5024589;28;20053;-47
2021/05/26 05:25:35;;;;;;;16.48;13.05;;;9.30;99.90;;;;;;5023299;28;20088;-47
2021/05/26 05:28:04;;;;;;;32.28;23.55;;;9.30;99.90;;;;;;5027884;28;20507;-49
2021/05/26 05:30:31;;;;;;;24.85;19.35;;;9.40;99.90;;;;;;5025519;28;20057;-48
2021/05/26 05:32:57;;;;;;;14.18;11.02;;;9.50;99.90;;;;;;5026681;28;20054;-48
2021/05/26 05:35:27;;;;;;;13.25;11.68;;;9.50;99.90;;;;;;5025342;28;20164;-49
2021/05/26 05:37:55;;;;;;;15.95;11.13;;;9.50;99.90;;;;;;5029143;28;20413;-49
2021/05/26 05:40:22;;;;;;;16.58;13.00;;;9.40;99.90;;;;;;5029963;28;20574;-50
2021/05/26 05:42:48;;;;;;;13.40;10.57;;;9.30;99.90;;;;;;5027014;28;20377;-50
2021/05/26 05:45:17;;;;;;;35.40;29.55;;;9.20;99.90;;;;;;5026871;28;20485;-50
2021/05/26 05:47:44;;;;;;;16.58;13.75;;;9.10;99.90;;;;;;5025871;28;20054;-53
2021/05/26 05:50:15;;;;;;;10.75;7.38;;;9.00;99.90;;;;;;5024786;28;20044;-51
2021/05/26 05:52:49;;;;;;;11.73;8.05;;;9.00;99.90;;;;;;5012924;28;20124;-56
2021/05/26 05:55:19;;;;;;;10.05;7.65;;;9.00;99.90;;;;;;5017684;28;20049;-48
2021/05/26 05:57:48;;;;;;;11.15;9.88;;;9.10;99.90;;;;;;5011163;28;20049;-49
2021/05/26 06:00:14;;;;;;;11.15;10.00;;;9.20;99.90;;;;;;5015638;28;20133;-51
2021/05/26 06:02:41;;;;;;;17.70;10.98;;;9.30;99.90;;;;;;5030992;28;20062;-48
2021/05/26 06:05:08;;;;;;;11.60;10.50;;;9.40;99.90;;;;;;5036146;28;20472;-47
2021/05/26 06:07:35;;;;;;;12.98;11.60;;;9.40;99.90;;;;;;5037100;28;20116;-50
2021/05/26 06:10:03;;;;;;;18.13;12.05;;;9.40;99.90;;;;;;5030103;28;20045;-51
2021/05/26 06:12:34;;;;;;;15.32;12.18;;;9.40;99.90;;;;;;5031114;28;20605;-48
2021/05/26 06:15:06;;;;;;;17.83;13.30;;;9.40;99.90;;;;;;5033969;28;20046;-47
2021/05/26 06:17:34;;;;;;;17.95;13.38;;;9.50;99.90;;;;;;5029975;28;20053;-50
2021/05/26 06:20:06;;;;;;;19.75;14.10;;;9.90;99.90;;;;;;5029860;28;20046;-48
2021/05/26 06:22:32;;;;;;;18.10;13.23;;;10.10;99.90;;;;;;5026015;28;20410;-48
2021/05/26 06:25:01;;;;;;;12.75;11.18;;;10.20;99.90;;;;;;5022809;28;20747;-48
2021/05/26 06:27:27;;;;;;;17.80;12.15;;;10.30;99.90;;;;;;5027298;28;20080;-48
2021/05/26 06:30:00;;;;;;;13.88;11.02;;;10.40;99.90;;;;;;5027999;28;20064;-51
2021/05/26 06:32:28;;;;;;;15.45;11.05;;;10.50;99.90;;;;;;5012479;28;20058;-50
2021/05/26 06:35:00;;;;;;;18.42;12.52;;;10.70;99.90;;;;;;5012099;28;20065;-52
2021/05/26 06:37:28;;;;;;;15.63;10.32;;;11.20;99.90;;;;;;5029458;28;20049;-53
2021/05/26 06:39:55;;;;;;;14.70;11.85;;;11.40;99.90;;;;;;5027541;28;20057;-49
2021/05/26 06:42:24;;;;;;;15.65;11.63;;;11.50;99.90;;;;;;5021292;28;20398;-50
2021/05/26 06:44:58;;;;;;;13.30;11.82;;;11.40;99.90;;;;;;5019222;28;20042;-50
2021/05/26 06:47:27;;;;;;;14.05;11.25;;;11.30;99.90;;;;;;5014481;28;20045;-50
2021/05/26 06:49:55;;;;;;;19.17;11.45;;;11.20;99.90;;;;;;5015103;28;20486;-50
2021/05/26 06:52:27;;;;;;;16.00;12.20;;;11.00;99.90;;;;;;5009429;28;20494;-48
2021/05/26 06:54:53;;;;;;;17.17;12.25;;;11.00;99.90;;;;;;5014371;28;20787;-50
2021/05/26 06:57:20;;;;;;;17.80;12.90;;;10.90;99.90;;;;;;5024322;28;20065;-49
2021/05/26 06:59:56;;;;;;;19.13;14.35;;;10.80;99.90;;;;;;5009807;28;20084;-50
2021/05/26 07:02:24;;;;;;;16.38;14.60;;;10.80;99.90;;;;;;4992476;28;20065;-56
2021/05/26 07:04:51;;;;;;;24.52;19.70;;;10.70;99.90;;;;;;5009915;28;20064;-52
2021/05/26 07:07:23;;;;;;;23.85;17.95;;;10.90;99.90;;;;;;5009925;28;20477;-51
2021/05/26 07:09:49;;;;;;;18.10;13.98;;;10.90;99.90;;;;;;5021472;28;20181;-47
2021/05/26 07:12:18;;;;;;;19.58;14.25;;;10.80;99.90;;;;;;5031799;28;20441;-50
2021/05/26 07:14:49;;;;;;;19.83;16.13;;;10.70;99.90;;;;;;5028144;28;20057;-49
2021/05/26 07:17:22;;;;;;;18.98;16.58;;;10.80;99.90;;;;;;5028883;28;20049;-47
2021/05/26 07:19:50;;;;;;;25.98;17.25;;;10.90;99.90;;;;;;5027648;28;20053;-48
2021/05/26 07:22:17;;;;;;;20.90;18.70;;;10.90;99.90;;;;;;5028592;28;20072;-49
2021/05/26 07:24:45;;;;;;;19.90;17.75;;;10.90;99.90;;;;;;5023012;28;20421;-47
2021/05/26 07:27:21;;;;;;;27.50;19.58;;;10.90;99.90;;;;;;5018364;28;20061;-48
2021/05/26 07:29:52;;;;;;;20.90;18.88;;;11.00;99.90;;;;;;5007730;28;20053;-48
2021/05/26 07:32:19;;;;;;;21.17;18.35;;;11.00;99.90;;;;;;5008497;28;20088;-50
2021/05/26 07:34:47;;;;;;;24.15;19.30;;;11.10;99.90;;;;;;5017622;28;20148;-50
2021/05/26 07:37:16;;;;;;;26.33;20.38;;;11.00;99.90;;;;;;5024432;28;20131;-47
2021/05/26 07:39:42;;;;;;;25.27;19.67;;;11.00;99.90;;;;;;5026841;28;20046;-47
2021/05/26 07:42:17;;;;;;;22.63;19.65;;;11.00;99.90;;;;;;5023190;28;20573;-46
2021/05/26 07:44:48;;;;;;;25.73;20.65;;;10.90;99.90;;;;;;5028381;28;20591;-47
2021/05/26 07:47:16;;;;;;;27.23;23.55;;;11.00;99.90;;;;;;5022005;28;20053;-49
2021/05/26 07:49:45;;;;;;;27.70;21.35;;;11.00;99.90;;;;;;5027523;28;20045;-46
2021/05/26 07:52:19;;;;;;;26.52;20.13;;;11.00;99.90;;;;;;5026088;28;20045;-50
2021/05/26 07:54:49;;;;;;;26.92;20.23;;;10.90;99.90;;;;;;5026641;28;20109;-47
2021/05/26 07:57:16;;;;;;;27.80;20.88;;;10.90;99.90;;;;;;5010843;28;20054;-50
2021/05/26 07:59:46;;;;;;;30.00;23.90;;;10.90;99.90;;;;;;5028018;28;20053;-51
2021/05/26 08:02:13;;;;;;;34.80;25.63;;;10.80;99.90;;;;;;5027965;28;20056;-48
2021/05/26 08:04:40;;;;;;;26.83;21.60;;;10.80;99.90;;;;;;5033740;28;20378;-49
2021/05/26 08:07:09;;;;;;;12.55;9.25;;;10.70;99.90;;;;;;5028771;28;20054;-49
2021/05/26 08:09:39;;;;;;;9.10;7.53;;;10.40;99.90;;;;;;5026644;28;20072;-51
2021/05/26 08:12:08;;;;;;;12.05;6.95;;;10.20;99.90;;;;;;5025332;28;20049;-50
2021/05/26 08:14:38;;;;;;;11.60;7.57;;;10.10;99.90;;;;;;5008761;28;20088;-49
2021/05/26 08:17:05;;;;;;;22.42;15.65;;;10.00;99.90;;;;;;5015940;28;20096;-48
2021/05/26 08:19:33;;;;;;;29.98;23.42;;;10.10;99.90;;;;;;5021391;28;20623;-45
2021/05/26 08:22:02;;;;;;;36.53;25.48;;;10.30;99.90;;;;;;5025494;28;20103;-48
2021/05/26 08:24:29;;;;;;;26.52;22.63;;;10.70;99.90;;;;;;5042770;28;20557;-46
2021/05/26 08:26:58;;;;;;;24.30;16.88;;;11.00;99.90;;;;;;5012153;28;20799;-49
2021/05/26 08:29:32;;;;;;;24.60;17.13;;;11.10;99.90;;;;;;5021550;28;20057;-48
2021/05/26 08:32:09;;;;;;;18.92;16.85;;;11.20;99.90;;;;;;5016653;28;20057;-47
2021/05/26 08:34:43;;;;;;;22.55;18.80;;;11.30;99.90;;;;;;5014722;28;20076;-48
2021/05/26 08:37:14;;;;;;;15.38;11.18;;;12.00;99.90;;;;;;5027604;28;20108;-49
2021/05/26 08:39:43;;;;;;;13.70;11.35;;;12.10;99.90;;;;;;5017729;28;20070;-51
2021/05/26 08:42:12;;;;;;;15.30;11.13;;;12.10;99.90;;;;;;5009251;28;20057;-48
2021/05/26 08:44:44;;;;;;;17.65;12.27;;;11.90;99.90;;;;;;5024439;28;20529;-47
2021/05/26 08:47:19;;;;;;;19.63;14.07;;;11.70;99.90;;;;;;5021727;28;20054;-48
2021/05/26 08:49:47;;;;;;;16.60;11.48;;;11.50;99.90;;;;;;5012718;28;20081;-47
2021/05/26 08:52:19;;;;;;;14.93;10.93;;;11.20;99.90;;;;;;4990519;28;20050;-51
2021/05/26 08:54:47;;;;;;;14.43;11.30;;;11.20;99.90;;;;;;5011542;28;20050;-50
2021/05/26 08:57:14;;;;;;;13.82;12.25;;;11.20;99.90;;;;;;5021805;28;20048;-47
2021/05/26 08:59:40;;;;;;;20.77;12.55;;;11.40;99.90;;;;;;5013948;28;20144;-52
2021/05/26 09:02:13;;;;;;;21.15;13.98;;;11.50;99.90;;;;;;5028754;28;20045;-48
2021/05/26 09:04:41;;;;;;;18.08;14.95;;;11.80;99.90;;;;;;5027543;28;20049;-47
2021/05/26 09:07:11;;;;;;;10.82;7.90;;;12.00;99.90;;;;;;5030138;28;20052;-48
2021/05/26 09:10:12;;;;;;;7.38;4.65;;;11.90;99.90;;;;;;5022861;28;20052;-48
2021/05/26 09:12:44;;;;;;;7.10;3.47;;;11.60;98.90;;;;;;4960573;28;20051;-52
2021/05/26 09:15:18;;;;;;;9.70;5.70;;;11.20;99.00;;;;;;4952241;28;20110;-48
2021/05/26 09:17:54;;;;;;;4.35;2.75;;;10.90;99.90;;;;;;4970010;28;20066;-47
2021/05/26 09:20:31;;;;;;;6.65;4.50;;;10.60;99.90;;;;;;4951747;28;20275;-48
2021/05/26 09:23:12;;;;;;;8.07;5.55;;;10.50;99.90;;;;;;4953330;28;20583;-46
2021/05/26 09:25:48;;;;;;;6.85;4.13;;;10.50;99.90;;;;;;4966597;28;20066;-48
2021/05/26 09:28:34;;;;;;;7.22;4.55;;;10.60;99.90;;;;;;4966341;28;20043;-48
2021/05/26 09:31:06;;;;;;;10.18;6.20;;;10.60;99.90;;;;;;4966483;28;20512;-46
2021/05/26 09:33:45;;;;;;;10.48;7.95;;;10.70;99.90;;;;;;4966637;28;20187;-47
2021/05/26 09:36:19;;;;;;;10.95;7.32;;;10.80;99.90;;;;;;4970136;28;20141;-47
2021/05/26 09:38:56;;;;;;;9.40;7.05;;;10.90;99.90;;;;;;4968088;28;20130;-48
2021/05/26 09:41:29;;;;;;;10.60;9.00;;;11.00;99.90;;;;;;4970437;28;20055;-51
2021/05/26 09:44:03;;;;;;;16.50;14.73;;;11.10;99.90;;;;;;4966724;28;20456;-49
2021/05/26 09:46:34;;;;;;;11.70;10.20;;;11.80;99.90;;;;;;4968078;28;20613;-47
2021/05/26 09:49:17;;;;;;;19.65;16.85;;;12.70;99.90;;;;;;5020946;28;20050;-51
2021/05/26 09:51:47;;;;;;;10.18;6.90;;;13.70;99.90;;;;;;5012011;28;20046;-50
2021/05/26 09:54:24;;;;;;;8.43;6.45;;;14.70;99.90;;;;;;5028699;28;20072;-48
2021/05/26 09:57:15;;;;;;;32.38;27.70;;;14.40;96.20;;;;;;5026373;28;20054;-51
2021/05/26 09:59:43;;;;;;;12.23;8.60;;;14.00;97.70;;;;;;5028523;28;20037;-50
2021/05/26 10:02:13;;;;;;;10.88;8.23;;;13.60;96.20;;;;;;5030107;28;20049;-47
2021/05/26 10:04:44;;;;;;;6.03;5.40;;;13.70;96.80;;;;;;5011251;28;20579;-49
2021/05/26 10:07:32;;;;;;;7.53;4.97;;;14.20;97.70;;;;;;5033168;28;20052;-47
2021/05/26 10:10:05;;;;;;;;;;;14.40;96.90;;;;;;5019007;28;20077;-49
2021/05/26 10:12:55;;;;;;;3.78;1.65;;;14.10;93.10;;;;;;5021568;28;20123;-49
2021/05/26 10:15:27;;;;;;;7.38;5.03;;;13.60;92.90;;;;;;5027126;28;20134;-50
2021/05/26 10:17:58;;;;;;;5.78;2.83;;;13.50;94.80;;;;;;5031754;28;20060;-50
2021/05/26 10:20:29;;;;;;;7.83;1.90;;;13.30;94.80;;;;;;5029681;28;20076;-49
2021/05/26 10:23:01;;;;;;;1.45;1.15;;;13.70;94.30;;;;;;5028207;28;20049;-50
2021/05/26 10:25:33;;;;;;;2.92;1.85;;;13.70;93.30;;;;;;5028893;28;20485;-49
2021/05/26 10:28:05;;;;;;;1.50;1.17;;;13.60;93.70;;;;;;5030418;28;20053;-47
2021/05/26 10:30:49;;;;;;;1.95;1.20;;;13.40;93.10;;;;;;5022002;28;20046;-48
2021/05/26 10:33:16;;;;;;;4.10;2.17;;;13.20;92.10;;;;;;5030015;28;20494;-48
2021/05/26 10:35:59;;;;;;;2.80;1.60;;;13.30;93.50;;;;;;5029825;28;20148;-48
2021/05/26 10:38:29;;;;;;;1.98;1.20;;;13.90;92.10;;;;;;5025742;28;20422;-50
2021/05/26 10:41:01;;;;;;;2.65;1.65;;;14.20;92.80;;;;;;5016286;28;20050;-52
2021/05/26 10:43:28;;;;;;;;;;;14.60;93.00;;;;;;5015040;28;20045;-47
2021/05/26 10:46:02;;;;;;;2.17;1.05;;;14.20;90.60;;;;;;5028495;28;19972;-52
2021/05/26 10:48:43;;;;;;;2.80;1.05;;;14.10;92.20;;;;;;5031098;28;20448;-51
2021/05/26 10:51:11;;;;;;;1.75;0.90;;;13.50;89.80;;;;;;5028667;28;20054;-51
2021/05/26 10:53:45;;;;;;;1.80;1.15;;;13.20;90.80;;;;;;5029141;28;20057;-49
2021/05/26 10:56:36;;;;;;;2.92;1.20;;;13.30;91.70;;;;;;5028378;28;20053;-52
2021/05/26 10:59:15;;;;;;;1.50;0.95;;;13.20;90.90;;;;;;5018372;28;20059;-50
2021/05/26 11:02:18;;;;;;;2.53;1.83;;;13.30;92.70;;;;;;5028759;28;20057;-51
2021/05/26 11:04:49;;;;;;;2.10;0.98;;;13.70;91.10;;;;;;4986426;28;20478;-49
2021/05/26 11:07:21;;;;;;;3.33;1.30;;;14.10;91.20;;;;;;4985883;28;20526;-46
2021/05/26 11:10:05;;;;;;;1.67;0.80;;;14.40;91.00;;;;;;4985617;28;20050;-50
2021/05/26 11:12:56;;;;;;;1.83;0.85;;;14.40;89.00;;;;;;4986127;28;20050;-49
2021/05/26 11:15:41;;;;;;;1.48;0.90;;;14.50;85.90;;;;;;4986885;28;20501;-50
2021/05/26 11:18:15;;;;;;;2.22;0.73;;;14.90;88.00;;;;;;4986250;28;20116;-53
2021/05/26 11:20:43;;;;;;;6.82;1.08;;;14.90;86.70;;;;;;4986404;28;20057;-49
2021/05/26 11:23:15;;;;;;;1.90;0.80;;;14.60;82.40;;;;;;4986913;28;20046;-50
2021/05/26 11:25:50;;;;;;;1.25;0.90;;;14.80;86.40;;;;;;4986811;28;20153;-49
2021/05/26 11:28:32;;;;;;;2.03;1.13;;;14.90;85.10;;;;;;4999158;28;20054;-50
2021/05/26 11:31:07;;;;;;;3.50;0.80;;;14.70;84.10;;;;;;5006178;28;20092;-48
2021/05/26 11:33:36;;;;;;;1.58;0.98;;;14.30;83.30;;;;;;5006099;28;20530;-52
2021/05/26 11:36:08;;;;;;;5.75;0.95;;;14.40;85.30;;;;;;5006013;28;20569;-50
2021/05/26 11:38:35;;;;;;;;;;;14.40;82.20;;;;;;5007138;28;20042;-51
2021/05/26 11:41:15;;;;;;;2.58;0.93;;;14.70;82.50;;;;;;5007836;28;19951;-49
2021/05/26 11:43:47;;;;;;;2.60;1.00;;;15.70;82.20;;;;;;5024210;28;20050;-48
2021/05/26 11:46:17;;;;;;;4.35;1.00;;;16.00;83.40;;;;;;5022425;28;20062;-50
2021/05/26 11:48:49;;;;;;;3.85;0.90;;;16.20;83.10;;;;;;5007798;28;20757;-51
2021/05/26 11:51:25;;;;;;;3.00;0.98;;;17.00;81.10;;;;;;5012077;28;20198;-51
2021/05/26 11:53:58;;;;;;;2.78;0.80;;;17.60;79.10;;;;;;5011144;28;20116;-47
2021/05/26 11:56:27;;;;;;;1.70;0.70;;;16.50;71.80;;;;;;5007058;28;20446;-52
2021/05/26 11:58:56;;;;;;;2.60;0.85;;;16.40;71.30;;;;;;5006965;28;20438;-50
2021/05/26 12:01:33;;;;;;;3.35;0.98;;;16.10;73.10;;;;;;5007999;28;20053;-46
2021/05/26 12:04:14;;;;;;;13.57;12.13;;;15.60;73.80;;;;;;5007966;28;20064;-51
2021/05/26 12:06:43;;;;;;;3.67;1.15;;;15.20;71.20;;;;;;5008126;28;20185;-50
2021/05/26 12:09:23;;;;;;;4.32;2.45;;;15.30;74.70;;;;;;5010827;28;20041;-50
2021/05/26 12:11:50;;;;;;;2.22;1.23;;;15.60;74.60;;;;;;5007285;28;20050;-51
2021/05/26 12:14:29;;;;;;;2.97;1.30;;;16.20;74.80;;;;;;5008267;28;20495;-50
2021/05/26 12:16:55;;;;;;;5.03;2.55;;;16.70;75.40;;;;;;5000073;28;20127;-53
2021/05/26 12:19:29;;;;;;;4.25;1.98;;;16.90;74.60;;;;;;5012370;28;20414;-52
2021/05/26 12:22:07;;;;;;;2.22;1.08;;;16.70;68.80;;;;;;5007615;28;20112;-50
2021/05/26 12:24:49;;;;;;;27.85;22.50;;;16.80;70.10;;;;;;5006394;28;20144;-49
2021/05/26 12:27:32;;;;;;;5.18;2.75;;;17.10;71.20;;;;;;4988995;28;20062;-51
2021/05/26 12:30:24;;;;;;;3.20;1.88;;;17.00;72.10;;;;;;4997889;28;20045;-50
2021/05/26 12:32:53;;;;;;;9.60;5.25;;;16.90;73.30;;;;;;4997551;28;20058;-51
2021/05/26 12:35:29;;;;;;;7.03;4.80;;;17.10;74.20;;;;;;5008552;28;20105;-48
2021/05/26 12:38:02;;;;;;;4.10;2.65;;;16.70;70.80;;;;;;4987082;28;20056;-52
2021/05/26 12:40:31;;;;;;;5.80;2.20;;;16.30;73.90;;;;;;5013780;28;20103;-50
2021/05/26 12:43:02;;;;;;;7.20;3.42;;;15.50;71.90;;;;;;5024606;28;20046;-48
2021/05/26 12:45:32;;;;;;;2.65;1.40;;;15.60;73.30;;;;;;4990869;28;20035;-46
2021/05/26 12:48:10;;;;;;;5.43;2.58;;;16.10;72.10;;;;;;5014213;28;20065;-49
2021/05/26 12:50:43;;;;;;;3.72;1.42;;;16.80;70.20;;;;;;5007706;28;20065;-50
2021/05/26 12:53:13;;;;;;;6.22;1.65;;;16.80;65.70;;;;;;5007494;28;20057;-52
2021/05/26 12:55:44;;;;;;;9.43;5.15;;;17.00;66.40;;;;;;5010605;28;20057;-50
2021/05/26 12:58:15;;;;;;;9.18;6.47;;;16.40;63.90;;;;;;5009108;28;20050;-52
2021/05/26 13:00:43;;;;;;;4.50;1.60;;;16.50;66.20;;;;;;5015512;28;20929;-49
2021/05/26 13:03:18;;;;;;;8.85;4.57;;;16.30;66.80;;;;;;5010119;28;20089;-49